Wetterstation Vordersexau
Wetterdaten: Woche 11.11.13 - 17.11.13 (KW46)
Datum Zeit Temp. A. Feuchte A. Luftdruck Regen Wind Richtung Taupunkt Windchill Windben
11.11.2013 00:00 0,0 C 0 % 1021,6 hPa 0,0 l/m 0,0 km/h W -60,0 C 0,0 C 0,0 km/h
11.11.2013 01:00 0,0 C 0 % 1022,2 hPa 0,0 l/m 0,0 km/h W -60,0 C 0,0 C 0,0 km/h
11.11.2013 02:00 0,0 C 0 % 1023,1 hPa 0,0 l/m 0,0 km/h W -60,0 C 0,0 C 0,0 km/h
11.11.2013 03:00 0,0 C 0 % 1023,6 hPa 0,0 l/m 0,0 km/h W -60,0 C 0,0 C 0,0 km/h
11.11.2013 04:00 0,0 C 0 % 1024,4 hPa 0,0 l/m 0,0 km/h W -60,0 C 0,0 C 0,0 km/h
11.11.2013 05:00 0,0 C 0 % 1024,9 hPa 0,0 l/m 0,0 km/h W -60,0 C 0,0 C 0,0 km/h
11.11.2013 06:00 0,0 C 0 % 1025,3 hPa 0,0 l/m 0,0 km/h W -60,0 C 0,0 C 0,0 km/h
11.11.2013 07:00 0,0 C 0 % 1026,0 hPa 0,0 l/m 0,0 km/h W -60,0 C 0,0 C 0,0 km/h
11.11.2013 08:00 0,0 C 0 % 1026,5 hPa 0,0 l/m 0,0 km/h O -60,0 C 0,0 C 0,0 km/h
11.11.2013 09:00 6,8 C 67 % 1027,0 hPa 0,0 l/m 0,0 km/h O-NO 1,1 C 6,8 C 0,0 km/h
11.11.2013 10:00 8,5 C 80 % 1027,1 hPa 0,0 l/m 0,0 km/h O-NO 5,3 C 8,5 C 0,0 km/h
11.11.2013 11:00 10,8 C 86 % 1027,1 hPa 0,0 l/m 0,0 km/h N-NO 8,6 C 10,8 C 0,0 km/h
11.11.2013 12:00 10,1 C 75 % 1027,1 hPa 0,0 l/m 5,2 km/h O-NO 5,9 C 10,1 C 2,9 km/h
11.11.2013 13:00 9,4 C 75 % 1027,1 hPa 0,0 l/m 0,0 km/h SO 5,2 C 9,4 C 0,0 km/h
11.11.2013 14:00 11,5 C 64 % 1027,0 hPa 0,0 l/m 0,0 km/h O-SO 4,9 C 11,5 C 0,0 km/h
11.11.2013 15:00 11,3 C 63 % 1027,3 hPa 0,0 l/m 0,0 km/h NO 4,5 C 11,3 C 0,0 km/h
11.11.2013 16:00 9,4 C 72 % 1027,2 hPa 0,0 l/m 0,0 km/h N 4,6 C 9,4 C 0,0 km/h
11.11.2013 17:00 4,3 C 80 % 1027,3 hPa 0,0 l/m 0,0 km/h O-NO 1,2 C 4,3 C 0,0 km/h
11.11.2013 18:00 2,4 C 85 % 1027,5 hPa 0,0 l/m 0,0 km/h SO 0,1 C 2,4 C 0,0 km/h
11.11.2013 19:00 1,8 C 86 % 1027,6 hPa 0,0 l/m 0,0 km/h O-SO -0,3 C 1,8 C 0,0 km/h
11.11.2013 20:00 1,6 C 86 % 1027,3 hPa 0,0 l/m 0,0 km/h NO -0,5 C 1,6 C 0,0 km/h
11.11.2013 21:00 1,1 C 86 % 1026,8 hPa 0,0 l/m 0,0 km/h O -1,0 C 1,1 C 0,0 km/h
11.11.2013 22:00 0,8 C 85 % 1026,8 hPa 0,0 l/m 0,0 km/h N -1,4 C 0,8 C 0,0 km/h
11.11.2013 23:00 0,6 C 85 % 1026,6 hPa 0,0 l/m 0,0 km/h N-NW -1,6 C 0,6 C 0,0 km/h
12.11.2013 00:00 -1,0 C 85 % 1026,3 hPa 0,0 l/m 0,0 km/h NO -3,2 C -1,0 C 0,0 km/h
12.11.2013 01:00 -1,1 C 85 % 1025,9 hPa 0,0 l/m 0,0 km/h O -3,3 C -1,1 C 0,0 km/h
12.11.2013 02:00 -1,3 C 84 % 1025,9 hPa 0,0 l/m 0,0 km/h N -3,6 C -1,3 C 0,0 km/h
12.11.2013 03:00 -1,1 C 83 % 1025,4 hPa 0,0 l/m 0,0 km/h O-SO -3,6 C -1,1 C 0,0 km/h
12.11.2013 04:00 -1,9 C 85 % 1025,3 hPa 0,0 l/m 0,0 km/h O-NO -4,1 C -1,9 C 0,0 km/h
12.11.2013 05:00 -2,7 C 84 % 1025,1 hPa 0,0 l/m 0,0 km/h N-NO -5,0 C -2,7 C 0,0 km/h
12.11.2013 06:00 -2,1 C 84 % 1024,5 hPa 0,0 l/m 0,0 km/h W-SW -4,4 C -2,1 C 0,0 km/h
12.11.2013 07:00 -2,6 C 84 % 1024,6 hPa 0,0 l/m 0,0 km/h N -4,9 C -2,6 C 0,0 km/h
12.11.2013 08:00 -1,3 C 81 % 1024,7 hPa 0,0 l/m 0,0 km/h N -4,1 C -1,3 C 0,0 km/h
12.11.2013 09:00 4,3 C 85 % 1024,9 hPa 0,0 l/m 0,0 km/h SW 2,0 C 4,3 C 0,0 km/h
12.11.2013 10:00 4,9 C 81 % 1025,1 hPa 0,0 l/m 2,6 km/h N-NW 1,9 C 4,9 C 1,4 km/h
12.11.2013 11:00 7,2 C 79 % 1024,8 hPa 0,0 l/m 0,0 km/h N-NW 3,8 C 7,2 C 0,0 km/h
12.11.2013 12:00 9,6 C 70 % 1023,8 hPa 0,0 l/m 1,9 km/h W-NW 4,4 C 9,6 C 1,1 km/h
12.11.2013 13:00 9,1 C 72 % 1023,1 hPa 0,0 l/m 0,0 km/h W 4,3 C 9,1 C 0,0 km/h
12.11.2013 14:00 11,1 C 62 % 1022,4 hPa 0,0 l/m 1,9 km/h W 4,1 C 11,1 C 1,1 km/h
12.11.2013 15:00 12,6 C 58 % 1022,2 hPa 0,0 l/m 0,0 km/h W 4,6 C 12,6 C 0,0 km/h
12.11.2013 16:00 10,6 C 60 % 1022,3 hPa 0,0 l/m 0,0 km/h O-NO 3,2 C 10,6 C 0,0 km/h
12.11.2013 17:00 2,6 C 76 % 1022,6 hPa 0,0 l/m 0,0 km/h O-NO -1,2 C 2,6 C 0,0 km/h
12.11.2013 18:00 0,8 C 83 % 1023,0 hPa 0,0 l/m 0,0 km/h O-SO -1,8 C 0,8 C 0,0 km/h
12.11.2013 19:00 0,2 C 85 % 1023,1 hPa 0,0 l/m 0,0 km/h O-NO -2,0 C 0,2 C 0,0 km/h
12.11.2013 20:00 0,1 C 86 % 1023,1 hPa 0,0 l/m 0,0 km/h O-SO -2,0 C 0,1 C 0,0 km/h
12.11.2013 21:00 0,0 C 86 % 1023,7 hPa 0,0 l/m 0,0 km/h SO -2,1 C 0,0 C 0,0 km/h
12.11.2013 22:00 1,0 C 86 % 1024,0 hPa 0,0 l/m 0,0 km/h SO -1,1 C 1,0 C 0,0 km/h
12.11.2013 23:00 1,8 C 86 % 1024,3 hPa 0,0 l/m 0,0 km/h SO -0,3 C 1,8 C 0,0 km/h
13.11.2013 00:00 2,2 C 85 % 1024,9 hPa 0,0 l/m 0,0 km/h SO -0,1 C 2,2 C 0,0 km/h
13.11.2013 01:00 2,6 C 85 % 1025,6 hPa 0,0 l/m 0,0 km/h SO 0,3 C 2,6 C 0,0 km/h
13.11.2013 02:00 2,9 C 84 % 1025,6 hPa 1,0 l/m 1,3 km/h SO 0,5 C 2,9 C 0,7 km/h
13.11.2013 03:00 3,1 C 84 % 1025,8 hPa 0,0 l/m 0,0 km/h SO 0,7 C 3,1 C 0,0 km/h
13.11.2013 04:00 3,4 C 84 % 1026,1 hPa 0,0 l/m 0,0 km/h SO 1,0 C 3,4 C 0,0 km/h
13.11.2013 05:00 3,5 C 83 % 1026,4 hPa 0,5 l/m 0,0 km/h SO 0,9 C 3,5 C 0,0 km/h
13.11.2013 06:00 3,6 C 83 % 1026,3 hPa 0,0 l/m 0,0 km/h NW 1,0 C 3,6 C 0,0 km/h
13.11.2013 07:00 3,8 C 82 % 1026,6 hPa 0,0 l/m 0,0 km/h NW 1,0 C 3,8 C 0,0 km/h
13.11.2013 08:00 3,9 C 81 % 1027,5 hPa 0,0 l/m 0,0 km/h NW 0,9 C 3,9 C 0,0 km/h
13.11.2013 09:00 4,5 C 80 % 1027,6 hPa 0,0 l/m 0,0 km/h W-NW 1,4 C 4,5 C 0,0 km/h
13.11.2013 10:00 5,8 C 81 % 1027,4 hPa 0,0 l/m 0,0 km/h SW 2,8 C 5,8 C 0,0 km/h
13.11.2013 11:00 10,8 C 84 % 1027,3 hPa 0,0 l/m 0,0 km/h W-NW 8,2 C 10,8 C 0,0 km/h
13.11.2013 12:00 10,3 C 76 % 1027,1 hPa 0,0 l/m 0,0 km/h O-SO 6,3 C 10,3 C 0,0 km/h
13.11.2013 13:00 9,9 C 77 % 1026,3 hPa 0,0 l/m 0,0 km/h NO 6,1 C 9,9 C 0,0 km/h
13.11.2013 14:00 9,1 C 77 % 1026,1 hPa 0,0 l/m 0,0 km/h N 5,3 C 9,1 C 0,0 km/h
13.11.2013 15:00 8,2 C 77 % 1026,0 hPa 0,0 l/m 5,8 km/h N-NO 4,4 C 8,2 C 3,2 km/h
13.11.2013 16:00 7,3 C 79 % 1026,0 hPa 0,0 l/m 1,9 km/h N-NO 3,9 C 7,3 C 1,1 km/h
13.11.2013 17:00 5,9 C 82 % 1025,9 hPa 0,0 l/m 0,0 km/h O 3,1 C 5,9 C 0,0 km/h
13.11.2013 18:00 5,2 C 83 % 1025,9 hPa 0,0 l/m 0,0 km/h NO 2,6 C 5,2 C 0,0 km/h
13.11.2013 19:00 5,9 C 84 % 1025,6 hPa 0,0 l/m 0,0 km/h O 3,4 C 5,9 C 0,0 km/h
13.11.2013 20:00 5,8 C 84 % 1025,2 hPa 0,0 l/m 0,0 km/h O-NO 3,3 C 5,8 C 0,0 km/h
13.11.2013 21:00 6,2 C 83 % 1024,7 hPa 0,0 l/m 0,0 km/h NO 3,5 C 6,2 C 0,0 km/h
13.11.2013 22:00 5,5 C 84 % 1024,6 hPa 0,0 l/m 0,0 km/h O-NO 3,0 C 5,5 C 0,0 km/h
13.11.2013 23:00 5,3 C 85 % 1024,0 hPa 0,0 l/m 0,0 km/h SO 3,0 C 5,3 C 0,0 km/h
14.11.2013 00:00 5,3 C 86 % 1023,4 hPa 0,0 l/m 0,0 km/h SO 3,2 C 5,3 C 0,0 km/h
14.11.2013 01:00 5,3 C 86 % 1022,7 hPa 0,0 l/m 0,0 km/h W 3,2 C 5,3 C 0,0 km/h
14.11.2013 02:00 4,6 C 86 % 1022,5 hPa 0,0 l/m 0,0 km/h W 2,5 C 4,6 C 0,0 km/h
14.11.2013 03:00 3,4 C 86 % 1022,0 hPa 0,0 l/m 0,0 km/h W 1,3 C 3,4 C 0,0 km/h
14.11.2013 04:00 2,9 C 86 % 1021,9 hPa 0,0 l/m 0,0 km/h NW 0,8 C 2,9 C 0,0 km/h
14.11.2013 05:00 3,4 C 86 % 1021,5 hPa 0,0 l/m 0,0 km/h NW 1,3 C 3,4 C 0,0 km/h
14.11.2013 06:00 3,3 C 85 % 1021,2 hPa 0,0 l/m 0,0 km/h SO 1,0 C 3,3 C 0,0 km/h
14.11.2013 07:00 3,6 C 85 % 1020,7 hPa 0,0 l/m 0,0 km/h SO 1,3 C 3,6 C 0,0 km/h
14.11.2013 08:00 3,9 C 85 % 1020,4 hPa 0,0 l/m 0,0 km/h SO 1,6 C 3,9 C 0,0 km/h
14.11.2013 09:00 4,2 C 84 % 1020,3 hPa 0,0 l/m 0,0 km/h W 1,7 C 4,2 C 0,0 km/h
14.11.2013 10:00 5,0 C 85 % 1020,3 hPa 0,0 l/m 0,0 km/h W 2,7 C 5,0 C 0,0 km/h
14.11.2013 11:00 5,4 C 85 % 1019,7 hPa 0,5 l/m 16,8 km/h W-SW 3,1 C -1,3 C 9,4 km/h
14.11.2013 12:00 6,3 C 86 % 1018,9 hPa 0,0 l/m 15,6 km/h S-SW 4,1 C 0,4 C 8,6 km/h
14.11.2013 13:00 7,8 C 83 % 1018,3 hPa 0,0 l/m 22,7 km/h SW 5,1 C -0,5 C 12,6 km/h
14.11.2013 14:00 7,6 C 81 % 1018,4 hPa 0,0 l/m 13,0 km/h W-SW 4,6 C 3,2 C 7,2 km/h
14.11.2013 15:00 7,1 C 81 % 1018,0 hPa 0,0 l/m 24,6 km/h S-SW 4,1 C -2,0 C 13,7 km/h
14.11.2013 16:00 6,6 C 79 % 1017,8 hPa 0,0 l/m 11,7 km/h W-SW 3,2 C 2,8 C 6,5 km/h
14.11.2013 17:00 5,8 C 80 % 1017,8 hPa 0,0 l/m 0,0 km/h S-SO 2,6 C 5,8 C 0,0 km/h
14.11.2013 18:00 4,5 C 84 % 1017,7 hPa 0,0 l/m 0,0 km/h O-NO 2,0 C 4,5 C 0,0 km/h
14.11.2013 19:00 4,3 C 85 % 1017,7 hPa 0,0 l/m 0,0 km/h NO 2,0 C 4,3 C 0,0 km/h
14.11.2013 20:00 4,6 C 85 % 1017,8 hPa 0,0 l/m 0,0 km/h O-NO 2,3 C 4,6 C 0,0 km/h
14.11.2013 21:00 4,5 C 85 % 1017,9 hPa 0,0 l/m 0,0 km/h SO 2,2 C 4,5 C 0,0 km/h
14.11.2013 22:00 4,4 C 86 % 1017,5 hPa 0,0 l/m 0,0 km/h SO 2,3 C 4,4 C 0,0 km/h
14.11.2013 23:00 4,3 C 86 % 1017,4 hPa 0,0 l/m 0,0 km/h O-SO 2,2 C 4,3 C 0,0 km/h
15.11.2013 00:00 3,9 C 86 % 1017,4 hPa 0,0 l/m 0,0 km/h O-SO 1,8 C 3,9 C 0,0 km/h
15.11.2013 01:00 2,9 C 87 % 1017,6 hPa 0,0 l/m 0,0 km/h O-SO 1,0 C 2,9 C 0,0 km/h
15.11.2013 02:00 2,9 C 86 % 1017,6 hPa 0,0 l/m 0,0 km/h SO 0,8 C 2,9 C 0,0 km/h
15.11.2013 03:00 3,0 C 86 % 1017,8 hPa 0,0 l/m 0,0 km/h NO 0,9 C 3,0 C 0,0 km/h
15.11.2013 04:00 3,1 C 86 % 1018,1 hPa 0,0 l/m 0,0 km/h O 1,0 C 3,1 C 0,0 km/h
15.11.2013 05:00 2,5 C 86 % 1017,6 hPa 0,0 l/m 0,0 km/h O-NO 0,4 C 2,5 C 0,0 km/h
15.11.2013 06:00 1,4 C 86 % 1017,4 hPa 0,0 l/m 0,0 km/h O-NO -0,7 C 1,4 C 0,0 km/h
15.11.2013 07:00 3,4 C 86 % 1017,7 hPa 0,0 l/m 0,0 km/h N 1,3 C 3,4 C 0,0 km/h
15.11.2013 08:00 3,3 C 86 % 1017,8 hPa 0,0 l/m 0,0 km/h N-NO 1,2 C 3,3 C 0,0 km/h
15.11.2013 09:00 4,0 C 84 % 1018,0 hPa 0,0 l/m 0,0 km/h N 1,5 C 4,0 C 0,0 km/h
15.11.2013 10:00 8,5 C 69 % 1018,4 hPa 0,0 l/m 3,9 km/h N 3,1 C 8,5 C 2,2 km/h
15.11.2013 11:00 9,3 C 63 % 1018,3 hPa 0,0 l/m 2,6 km/h O 2,6 C 9,3 C 1,4 km/h
15.11.2013 12:00 11,8 C 59 % 1018,3 hPa 0,0 l/m 1,9 km/h N-NO 4,1 C 11,8 C 1,1 km/h
15.11.2013 13:00 10,6 C 57 % 1018,4 hPa 0,0 l/m 1,3 km/h N 2,4 C 10,6 C 0,7 km/h
15.11.2013 14:00 11,4 C 58 % 1018,6 hPa 0,0 l/m 3,2 km/h N 3,4 C 11,4 C 1,8 km/h
15.11.2013 15:00 9,9 C 61 % 1018,9 hPa 0,0 l/m 1,9 km/h N 2,7 C 9,9 C 1,1 km/h
15.11.2013 16:00 7,4 C 68 % 1019,6 hPa 0,0 l/m 0,0 km/h N 1,9 C 7,4 C 0,0 km/h
15.11.2013 17:00 5,1 C 73 % 1020,6 hPa 0,0 l/m 0,0 km/h N 0,7 C 5,1 C 0,0 km/h
15.11.2013 18:00 4,4 C 78 % 1021,7 hPa 0,0 l/m 0,0 km/h N-NO 0,9 C 4,4 C 0,0 km/h
15.11.2013 19:00 5,8 C 76 % 1022,5 hPa 0,0 l/m 0,0 km/h N-NO 1,9 C 5,8 C 0,0 km/h
15.11.2013 20:00 5,0 C 76 % 1023,1 hPa 0,0 l/m 0,0 km/h O 1,1 C 5,0 C 0,0 km/h
15.11.2013 21:00 4,9 C 78 % 1024,1 hPa 0,0 l/m 0,0 km/h N-NO 1,4 C 4,9 C 0,0 km/h
15.11.2013 22:00 4,8 C 77 % 1024,6 hPa 0,0 l/m 0,0 km/h N-NO 1,1 C 4,8 C 0,0 km/h
15.11.2013 23:00 4,6 C 80 % 1025,2 hPa 0,0 l/m 0,0 km/h N-NO 1,5 C 4,6 C 0,0 km/h
16.11.2013 00:00 4,4 C 82 % 1025,5 hPa 0,0 l/m 0,0 km/h N-NO 1,6 C 4,4 C 0,0 km/h
16.11.2013 01:00 4,8 C 81 % 1024,9 hPa 0,0 l/m 0,0 km/h N 1,8 C 4,8 C 0,0 km/h
16.11.2013 02:00 4,8 C 81 % 1025,2 hPa 0,0 l/m 0,0 km/h N 1,8 C 4,8 C 0,0 km/h
16.11.2013 03:00 4,6 C 83 % 1025,4 hPa 0,0 l/m 0,0 km/h O-SO 2,0 C 4,6 C 0,0 km/h
16.11.2013 04:00 4,6 C 83 % 1025,3 hPa 0,0 l/m 0,0 km/h O-SO 2,0 C 4,6 C 0,0 km/h
16.11.2013 05:00 4,5 C 83 % 1025,7 hPa 0,0 l/m 0,0 km/h SO 1,9 C 4,5 C 0,0 km/h
16.11.2013 06:00 4,4 C 84 % 1026,0 hPa 0,0 l/m 0,0 km/h O-SO 1,9 C 4,4 C 0,0 km/h
16.11.2013 07:00 4,4 C 85 % 1026,4 hPa 0,0 l/m 0,0 km/h O-SO 2,1 C 4,4 C 0,0 km/h
16.11.2013 08:00 4,5 C 85 % 1026,7 hPa 0,0 l/m 0,0 km/h O-SO 2,2 C 4,5 C 0,0 km/h
16.11.2013 09:00 5,4 C 84 % 1026,6 hPa 0,0 l/m 0,0 km/h NO 2,9 C 5,4 C 0,0 km/h
16.11.2013 10:00 6,4 C 82 % 1026,1 hPa 0,0 l/m 0,0 km/h NW 3,6 C 6,4 C 0,0 km/h
16.11.2013 11:00 7,3 C 78 % 1025,9 hPa 0,0 l/m 1,3 km/h W 3,7 C 7,3 C 0,7 km/h
16.11.2013 12:00 8,1 C 76 % 1025,1 hPa 0,0 l/m 0,0 km/h W 4,1 C 8,1 C 0,0 km/h
16.11.2013 13:00 8,8 C 73 % 1024,6 hPa 0,0 l/m 0,0 km/h W 4,2 C 8,8 C 0,0 km/h
16.11.2013 14:00 8,6 C 76 % 1023,9 hPa 0,0 l/m 0,0 km/h W 4,6 C 8,6 C 0,0 km/h
16.11.2013 15:00 8,6 C 75 % 1023,6 hPa 0,0 l/m 0,0 km/h N 4,4 C 8,6 C 0,0 km/h
16.11.2013 16:00 7,5 C 78 % 1023,1 hPa 0,0 l/m 0,0 km/h N 3,9 C 7,5 C 0,0 km/h
16.11.2013 17:00 6,9 C 79 % 1023,1 hPa 0,0 l/m 0,0 km/h O 3,5 C 6,9 C 0,0 km/h
16.11.2013 18:00 6,4 C 80 % 1023,3 hPa 0,0 l/m 0,0 km/h O 3,2 C 6,4 C 0,0 km/h
16.11.2013 19:00 6,3 C 81 % 1023,2 hPa 0,0 l/m 0,0 km/h O-NO 3,3 C 6,3 C 0,0 km/h
16.11.2013 20:00 6,2 C 81 % 1023,0 hPa 0,0 l/m 0,0 km/h O-NO 3,2 C 6,2 C 0,0 km/h
16.11.2013 21:00 6,2 C 81 % 1023,1 hPa 0,0 l/m 0,0 km/h O-NO 3,2 C 6,2 C 0,0 km/h
16.11.2013 22:00 5,9 C 82 % 1022,8 hPa 0,0 l/m 0,0 km/h O-NO 3,1 C 5,9 C 0,0 km/h
16.11.2013 23:00 5,8 C 83 % 1022,5 hPa 0,0 l/m 0,0 km/h O-NO 3,1 C 5,8 C 0,0 km/h
17.11.2013 00:00 5,6 C 84 % 1022,6 hPa 0,0 l/m 0,0 km/h O-NO 3,1 C 5,6 C 0,0 km/h
17.11.2013 01:00 5,4 C 84 % 1022,2 hPa 0,0 l/m 0,0 km/h O 2,9 C 5,4 C 0,0 km/h
17.11.2013 02:00 5,6 C 83 % 1022,3 hPa 0,0 l/m 0,0 km/h O-SO 2,9 C 5,6 C 0,0 km/h
17.11.2013 03:00 5,4 C 84 % 1021,8 hPa 0,0 l/m 0,0 km/h O 2,9 C 5,4 C 0,0 km/h
17.11.2013 04:00 5,3 C 84 % 1021,3 hPa 0,0 l/m 0,0 km/h O-SO 2,8 C 5,3 C 0,0 km/h
17.11.2013 05:00 5,3 C 84 % 1020,9 hPa 0,0 l/m 0,0 km/h N-NO 2,8 C 5,3 C 0,0 km/h
17.11.2013 06:00 5,1 C 84 % 1020,4 hPa 0,0 l/m 0,0 km/h SO 2,6 C 5,1 C 0,0 km/h
17.11.2013 07:00 5,0 C 85 % 1020,4 hPa 0,0 l/m 0,0 km/h S-SW 2,7 C 5,0 C 0,0 km/h
17.11.2013 08:00 5,1 C 86 % 1020,4 hPa 0,0 l/m 0,0 km/h SW 3,0 C 5,1 C 0,0 km/h
17.11.2013 09:00 5,6 C 86 % 1020,6 hPa 0,0 l/m 0,0 km/h W 3,4 C 5,6 C 0,0 km/h
17.11.2013 10:00 5,8 C 86 % 1020,7 hPa 0,0 l/m 0,0 km/h W 3,6 C 5,8 C 0,0 km/h
17.11.2013 11:00 6,5 C 85 % 1020,1 hPa 0,0 l/m 0,0 km/h W 4,2 C 6,5 C 0,0 km/h
17.11.2013 12:00 7,4 C 83 % 1019,5 hPa 0,0 l/m 0,0 km/h W-NW 4,7 C 7,4 C 0,0 km/h
17.11.2013 13:00 7,6 C 81 % 1018,9 hPa 0,0 l/m 0,0 km/h W 4,6 C 7,6 C 0,0 km/h
17.11.2013 14:00 7,3 C 82 % 1018,2 hPa 0,0 l/m 0,0 km/h W 4,4 C 7,3 C 0,0 km/h
17.11.2013 15:00 7,6 C 81 % 1017,9 hPa 0,0 l/m 0,0 km/h W 4,6 C 7,6 C 0,0 km/h
17.11.2013 16:00 7,3 C 80 % 1017,4 hPa 0,0 l/m 0,0 km/h W 4,1 C 7,3 C 0,0 km/h
17.11.2013 17:00 6,3 C 82 % 1017,4 hPa 0,0 l/m 0,0 km/h W 3,5 C 6,3 C 0,0 km/h
17.11.2013 18:00 5,8 C 84 % 1016,9 hPa 0,0 l/m 0,0 km/h W 3,3 C 5,8 C 0,0 km/h
17.11.2013 19:00 5,6 C 84 % 1016,9 hPa 0,0 l/m 0,0 km/h S-SO 3,1 C 5,6 C 0,0 km/h
17.11.2013 20:00 5,6 C 86 % 1016,9 hPa 0,0 l/m 0,0 km/h S-SO 3,4 C 5,6 C 0,0 km/h
17.11.2013 21:00 5,3 C 86 % 1016,7 hPa 0,0 l/m 0,0 km/h SO 3,2 C 5,3 C 0,0 km/h
17.11.2013 22:00 3,8 C 86 % 1016,4 hPa 0,0 l/m 0,0 km/h O-SO 1,7 C 3,8 C 0,0 km/h
17.11.2013 23:00 1,8 C 86 % 1015,8 hPa 0,0 l/m 0,0 km/h O-SO -0,3 C 1,8 C 0,0 km/h
Min-Datum _ 12.11.13 11.11.13 17.11.13 - 11.11.13 - 11.11.13 12.11.13 11.11.13
_ Min-Zeit 05:19 00:19 23:19 - 00:19 - 00:19 05:19 00:19
Minimum _ -2,7 C 0 % 1015,8 hPa - 0,0 km/h - -60,0 C -2,7 C 0,0 km/h
Max-Datum _ 12.11.13 15.11.13 11.11.13 13.11.13 14.11.13 - 11.11.13 12.11.13 14.11.13
_ Max-Zeit 15:19 01:19 19:19 02:19 15:19 - 11:19 15:19 15:19
Maximum _ 12,6 C 87 % 1027,6 hPa 1,0 l/m 24,6 km/h
S-SW
- 8,6 C 12,6 C 13,7 km/h
S-SW
Durchschnitt _ 4,9 C 77 % 1022,8 hPa #2,1 l/m 0,8 km/h W -1,2 C 4,7 C 0,5 km/h
www.sexauwetter.de